Friday, August 01, 2014
07:55 UTC
  |  Log In   |  Register Free
Airport Search:

Page Field Airport
(KFMY)

Page Field Airport Diagram
No Airport Diagram Available

FAA data valid effective July 24, 2014 until September 18, 2014 (unless otherwise noted).

 
 
 
 
 
 
 
 
 
 
 
 
 
 

Current Aviation Weather for Page Field Airport (KFMY)

The most recent METAR observation for KFMY was updated at: 1753 UTC
METAR Summary (Translated METAR)
KFMY
281753Z 25009KT 10SM BKN100 29/25 A3007 RMK AO2 RAB03E23 TSE03 SLP184 P0000 60030 T02940250 10300 20256 58008
KRSW
(6.5 nm SE from KFMY)
281853Z 25009KT 10SM SCT110 31/23 A3006 RMK AO2 SLP178 T03060233
TAF Summary (Translated TAF)
KFMY
010537Z 0106/0206 VRB03KT P6SM SCT090 BKN250 FM011600 25006KT P6SM VCSH FEW030 SCT250 FM011800 26007KT P6SM VCTS SCT035CB BKN250 FM020100 VRB03KT P6SM FEW035 SCT250
KRSW
(6.5 nm SE from KFMY)
010537Z 0106/0206 VRB03KT P6SM SCT090 BKN250 FM011600 23006KT P6SM VCSH FEW030 SCT250 FM011800 24007KT P6SM VCTS SCT035CB BKN250 FM020100 VRB03KT P6SM FEW035 SCT250
  Airport Weather Conditions for KFMY

 Current Weather at FMY
78° F
Fair
South winds at 4.6 mph
FMY NOAA Radar

Pressure: 29.95 in
Humidity: 93%
Wind: South at 4.6 MPH (4 KT)
Dew Point: 75.9°F
Visibility: 10.00 mi


Airport Weather Forecast for KFMY

Translated METAR and TAF for KFMY
Translated METAR for KFMY (0749 UTC 01 August 2014)
found at http://aviationweather.gov/adds/metars/
 
METAR text: KFMY 010653Z AUTO 16004KT 10SM CLR 26/24 A2995 RMK AO2 SLP143 T02560244 $
Conditions at: KFMY (FORT MYERS , FL, US) observed 0653 UTC 01 August 2014
Temperature: 25.6°C (78°F)
Dewpoint: 24.4°C (76°F) [RH = 93%]
Pressure (altimeter): 29.95 inches Hg (1014.3 mb)
[Sea-level pressure: 1014.3 mb]
Winds: from the SSE (160 degrees) at 5 MPH (4 knots; 2.1 m/s)
Visibility: 10 or more miles (16+ km)
Ceiling: at least 12,000 feet AGL
Clouds: sky clear below 12,000 feet AGL
Weather:
SOME DATA ABOVE MAY BE INACCURATE!!!
"$" is an indication the sensor requires maintenance
Translated TAF for KFMY
Forecast for: KFMY (FORT MYERS , FL, US)
TAF Text: KFMY 010537Z 0106/0206 VRB03KT P6SM SCT090 BKN250
Forecast period: 0600 to 1600 UTC 01 August 2014
Forecast type: FROM: standard forecast or significant change
Winds: variable direction winds at 3 MPH (3 knots; 1.6 m/s)
Visibility: 6 or more miles (10+ km)
Ceiling: 25000 feet AGL
Clouds: scattered clouds at 9000 feet AGL
broken clouds at 25000 feet AGL
Weather: no significant weather forecast for this period
TAF Text: FM011600 25006KT P6SM VCSH FEW030 SCT250
Forecast period: 1600 to 1800 UTC 01 August 2014
Forecast type: FROM: standard forecast or significant change
Winds: from the WSW (250 degrees) at 7 MPH (6 knots; 3.1 m/s)
Visibility: 6 or more miles (10+ km)
Clouds: few clouds at 3000 feet AGL
scattered clouds at 25000 feet AGL
Weather: VCSH  (showers in vicinity)
TAF Text: FM011800 26007KT P6SM VCTS SCT035CB BKN250
Forecast period: 1800 UTC 01 August 2014 to 0100 UTC 02 August 2014
Forecast type: FROM: standard forecast or significant change
Winds: from the W (260 degrees) at 8 MPH (7 knots; 3.6 m/s)
Visibility: 6 or more miles (10+ km)
Ceiling: 25000 feet AGL
Clouds: scattered clouds at 3500 feet AGL
broken clouds at 25000 feet AGL
Weather: VCTS  (thunderstorm in vicinity)
TAF Text: FM020100 VRB03KT P6SM FEW035 SCT250
Forecast period: 0100 to 0600 UTC 02 August 2014
Forecast type: FROM: standard forecast or significant change
Winds: variable direction winds at 3 MPH (3 knots; 1.6 m/s)
Visibility: 6 or more miles (10+ km)
Clouds: few clouds at 3500 feet AGL
scattered clouds at 25000 feet AGL
Weather: no significant weather forecast for this period

Find All Airport Services Find A Hotel Find A Rental Car Find A Golf Course Find A Restaurant $100 Hamburger



FBO's on the Field
FBO Company Facility Photos Services Transportation Aviation Fuel Prices: Prices include tax
Catering Weather Repair Courtesy Rental Type 100LL JetA JetA+ MOGAS 8087
 
Base Operations at Page Field

Currently rated 4.8 by 2 people
FS:Avfuel
Last Updated: Jul-29
Login to update fuel prices
SS:
Contact Base Operations at Page FieldMore FBO Information
 
Add another FBO Facility Photos Catering Weather Repair Courtesy Rental Type 100LL JetA JetA+ MOGAS 8087
Services Transportation Aviation Fuel Prices: Prices include tax


GlobalAir.com Airport Resource Center model-print
model-print
model-print
model-print